createdAt,value
2022-10-22T00:00:52.878Z,41.80
2022-10-22T00:03:23.028Z,41.70
2022-10-22T00:05:53.071Z,41.80
2022-10-22T00:08:23.213Z,41.70
2022-10-22T00:10:54.027Z,41.70
2022-10-22T00:13:24.108Z,41.70
2022-10-22T00:15:54.172Z,41.60
2022-10-22T00:18:24.761Z,41.50
2022-10-22T00:20:54.804Z,41.60
2022-10-22T00:23:24.892Z,41.60
2022-10-22T00:25:55.452Z,41.50
2022-10-22T00:28:28.336Z,41.40
2022-10-22T00:31:01.947Z,41.50
2022-10-22T00:33:32.235Z,41.50
2022-10-22T00:36:02.292Z,41.60
2022-10-22T00:38:32.464Z,41.60
2022-10-22T00:43:55.822Z,41.60
2022-10-22T00:46:25.867Z,41.50
2022-10-22T00:48:56.534Z,41.50
2022-10-22T00:51:28.828Z,41.80
2022-10-22T00:54:02.121Z,41.90
2022-10-22T00:56:32.235Z,42.10
2022-10-22T00:59:02.561Z,42.30
2022-10-22T01:01:33.545Z,42.40
2022-10-22T01:04:03.590Z,42.50
2022-10-22T01:06:34.510Z,42.50
2022-10-22T01:09:17.371Z,42.60
2022-10-22T01:11:54.487Z,42.60
2022-10-22T01:14:36.849Z,42.60
2022-10-22T01:17:11.386Z,42.70
2022-10-22T01:19:48.210Z,42.70
2022-10-22T01:22:33.377Z,42.70
2022-10-22T01:25:18.788Z,42.80
2022-10-22T01:27:55.248Z,43.30
2022-10-22T01:30:25.396Z,42.90
2022-10-22T01:32:58.123Z,43.00
2022-10-22T01:35:31.221Z,42.80
2022-10-22T01:38:03.156Z,42.90
2022-10-22T01:40:33.138Z,43.00
2022-10-22T01:43:05.611Z,43.00
2022-10-22T01:45:49.174Z,42.90
2022-10-22T01:48:31.011Z,43.00
2022-10-22T01:51:48.633Z,43.00
2022-10-22T01:54:24.832Z,43.10
2022-10-22T01:57:06.572Z,43.10
2022-10-22T01:59:42.555Z,43.30
2022-10-22T02:02:56.494Z,44.00
2022-10-22T02:05:53.902Z,44.80
2022-10-22T02:08:30.908Z,45.00
2022-10-22T02:11:01.294Z,44.90
2022-10-22T02:13:38.020Z,45.00
2022-10-22T02:16:09.650Z,45.20
2022-10-22T02:18:41.628Z,45.40
2022-10-22T02:21:11.747Z,45.20
2022-10-22T02:23:41.928Z,45.40
2022-10-22T02:26:18.711Z,45.40
2022-10-22T02:29:09.878Z,45.30
2022-10-22T02:31:40.854Z,45.50
2022-10-22T02:34:12.747Z,45.40
2022-10-22T02:36:46.689Z,45.80
2022-10-22T02:39:20.660Z,45.60
2022-10-22T02:41:50.682Z,45.90
2022-10-22T02:44:23.179Z,45.80
2022-10-22T02:46:53.249Z,46.00
2022-10-22T02:49:23.347Z,46.10
2022-10-22T02:51:53.427Z,46.20
2022-10-22T02:54:23.516Z,46.70
2022-10-22T02:56:53.563Z,46.30
2022-10-22T02:59:23.703Z,46.60
2022-10-22T03:01:54.400Z,47.50
2022-10-22T03:04:24.425Z,47.90
2022-10-22T03:06:54.456Z,48.50
2022-10-22T03:09:25.705Z,49.40
2022-10-22T03:11:56.409Z,49.90
2022-10-22T03:14:26.419Z,50.40
2022-10-22T03:16:56.441Z,49.60
2022-10-22T03:19:26.563Z,50.50
2022-10-22T03:22:03.423Z,50.60
2022-10-22T03:24:44.442Z,50.60
2022-10-22T03:27:14.925Z,50.30
2022-10-22T03:29:45.853Z,50.50
2022-10-22T03:32:15.832Z,40.70
2022-10-22T03:34:45.984Z,39.50
2022-10-22T03:37:16.018Z,37.10
2022-10-22T03:39:46.144Z,38.50
2022-10-22T03:42:22.062Z,36.60
2022-10-22T03:44:52.344Z,43.90
2022-10-22T03:47:26.376Z,45.90
2022-10-22T03:49:56.448Z,42.10
2022-10-22T03:52:27.168Z,40.10
2022-10-22T03:54:57.452Z,40.00
2022-10-22T03:57:27.466Z,40.70
2022-10-22T03:59:57.531Z,42.00
2022-10-22T04:02:27.603Z,42.30
2022-10-22T04:04:57.838Z,42.70
2022-10-22T04:07:27.898Z,43.10
2022-10-22T04:09:57.957Z,43.30
2022-10-22T04:12:28.055Z,43.60
2022-10-22T04:15:01.333Z,43.90
2022-10-22T04:17:38.691Z,44.20
2022-10-22T04:20:09.354Z,45.00
2022-10-22T04:22:39.350Z,44.80
2022-10-22T04:25:09.545Z,45.00
2022-10-22T04:27:39.862Z,45.40
2022-10-22T04:30:10.788Z,45.30
2022-10-22T04:32:40.868Z,45.50
2022-10-22T04:35:11.088Z,45.60
2022-10-22T04:37:41.519Z,45.80
2022-10-22T04:40:12.483Z,45.90
2022-10-22T04:42:42.483Z,46.00
2022-10-22T04:45:12.795Z,46.10
2022-10-22T04:47:43.027Z,46.20
2022-10-22T04:50:13.262Z,46.20
2022-10-22T04:52:43.360Z,46.40
2022-10-22T04:55:13.430Z,46.50
2022-10-22T04:57:43.577Z,46.50
2022-10-22T05:00:14.070Z,46.60
2022-10-22T05:02:45.931Z,46.60
2022-10-22T05:05:15.970Z,46.60
2022-10-22T05:07:46.011Z,46.70
2022-10-22T05:10:16.228Z,46.70
2022-10-22T05:12:46.259Z,46.60
2022-10-22T05:15:16.309Z,46.60
2022-10-22T05:17:46.278Z,46.70
2022-10-22T05:20:16.358Z,46.80
2022-10-22T05:22:46.360Z,46.70
2022-10-22T05:25:16.654Z,46.80
2022-10-22T05:27:50.120Z,46.90
2022-10-22T05:30:19.695Z,46.90
2022-10-22T05:32:49.771Z,46.90
2022-10-22T05:35:19.891Z,46.90
2022-10-22T05:37:50.010Z,47.00
2022-10-22T05:40:30.410Z,46.90
2022-10-22T05:43:01.460Z,46.80
2022-10-22T05:45:31.507Z,47.00
2022-10-22T05:48:01.499Z,46.90
2022-10-22T05:50:31.696Z,47.00
2022-10-22T05:53:01.733Z,46.90
2022-10-22T05:55:31.871Z,46.90
2022-10-22T05:58:01.961Z,46.80
2022-10-22T06:00:32.141Z,46.80
2022-10-22T06:03:02.179Z,46.80
2022-10-22T06:05:32.215Z,46.90
2022-10-22T06:08:02.413Z,46.80
2022-10-22T06:10:34.800Z,46.80
2022-10-22T06:13:09.270Z,46.80
2022-10-22T06:15:39.480Z,46.70
2022-10-22T06:18:09.565Z,46.70
2022-10-22T06:20:39.622Z,46.80
2022-10-22T06:23:09.654Z,46.90
2022-10-22T06:25:39.743Z,46.80
2022-10-22T06:28:09.792Z,46.80
2022-10-22T06:30:42.990Z,46.90
2022-10-22T06:33:16.080Z,46.80
2022-10-22T06:35:46.481Z,46.80
2022-10-22T06:38:16.804Z,46.80
2022-10-22T06:40:46.877Z,46.80
2022-10-22T06:43:16.966Z,46.90
2022-10-22T06:45:47.006Z,46.80
2022-10-22T06:48:17.207Z,46.80
2022-10-22T06:50:47.278Z,46.90
2022-10-22T06:53:17.550Z,46.90
2022-10-22T06:55:47.587Z,46.90
2022-10-22T06:58:17.631Z,46.80
2022-10-22T07:00:47.753Z,46.90
2022-10-22T07:03:20.947Z,47.00
2022-10-22T07:05:51.008Z,46.80
2022-10-22T07:08:21.054Z,46.80
2022-10-22T07:10:51.111Z,46.90
2022-10-22T07:13:21.330Z,46.90
2022-10-22T07:15:55.941Z,46.90
2022-10-22T07:18:26.764Z,46.90
2022-10-22T07:20:56.946Z,46.80
2022-10-22T07:23:27.800Z,46.90
2022-10-22T07:25:58.074Z,46.80
2022-10-22T07:28:31.808Z,47.10
2022-10-22T07:31:02.765Z,47.00
2022-10-22T07:33:33.025Z,46.70
2022-10-22T07:36:04.597Z,46.70
2022-10-22T07:38:35.297Z,46.70
2022-10-22T07:41:05.783Z,46.70
2022-10-22T07:43:35.848Z,46.60
2022-10-22T07:46:05.940Z,46.40
2022-10-22T07:48:36.844Z,46.50
2022-10-22T07:51:07.173Z,46.50
2022-10-22T07:53:37.513Z,46.70
2022-10-22T07:56:07.938Z,46.60
2022-10-22T07:58:37.989Z,47.30
2022-10-22T08:01:08.171Z,47.80
2022-10-22T08:03:38.276Z,46.90
2022-10-22T08:06:08.565Z,47.10
2022-10-22T08:08:38.710Z,47.10
2022-10-22T08:11:08.807Z,47.00
2022-10-22T08:13:42.730Z,47.10
2022-10-22T08:16:15.461Z,47.20
2022-10-22T08:18:45.533Z,47.60
2022-10-22T08:21:15.627Z,47.70
2022-10-22T08:23:45.809Z,47.80
2022-10-22T08:26:15.831Z,48.10
2022-10-22T08:28:48.024Z,48.20
2022-10-22T08:31:18.122Z,48.40
2022-10-22T08:33:48.144Z,48.40
2022-10-22T08:36:18.242Z,48.40
2022-10-22T08:38:48.250Z,48.50
2022-10-22T08:41:22.398Z,48.60
2022-10-22T08:44:13.863Z,48.80
2022-10-22T08:47:29.010Z,48.90
2022-10-22T08:49:59.431Z,49.00
2022-10-22T08:52:29.494Z,49.00
2022-10-22T08:55:02.359Z,49.00
2022-10-22T08:57:53.980Z,49.20
2022-10-22T09:00:43.274Z,48.70
2022-10-22T09:03:39.831Z,49.00
2022-10-22T09:06:23.964Z,49.10
2022-10-22T09:08:54.419Z,49.00
2022-10-22T09:11:26.562Z,49.10
2022-10-22T09:13:56.913Z,49.20
2022-10-22T09:16:30.968Z,49.20
2022-10-22T09:19:31.496Z,50.10
2022-10-22T09:22:17.418Z,49.60
2022-10-22T09:24:54.183Z,49.70
2022-10-22T09:27:28.784Z,49.80
2022-10-22T09:29:58.857Z,49.80
2022-10-22T09:32:28.828Z,50.00
2022-10-22T09:34:59.519Z,49.60
2022-10-22T09:37:30.994Z,49.30
2022-10-22T09:40:00.953Z,49.30
2022-10-22T09:42:30.969Z,49.30
2022-10-22T09:45:01.618Z,49.10
2022-10-22T09:48:00.450Z,49.10
2022-10-22T09:50:30.096Z,49.10
2022-10-22T09:53:16.208Z,49.00
2022-10-22T09:55:46.591Z,48.80
2022-10-22T09:58:16.669Z,48.80
2022-10-22T10:00:52.324Z,49.00
2022-10-22T10:03:28.918Z,48.70
2022-10-22T10:06:05.027Z,48.80
2022-10-22T10:08:36.382Z,48.90
2022-10-22T10:11:29.251Z,49.10
2022-10-22T10:14:18.493Z,49.10
2022-10-22T10:16:56.131Z,49.20
2022-10-22T10:20:05.160Z,49.20
2022-10-22T10:22:52.130Z,49.30
2022-10-22T10:25:43.800Z,49.30
2022-10-22T10:28:45.407Z,49.30
2022-10-22T10:31:22.719Z,49.40
2022-10-22T10:33:56.002Z,49.40
2022-10-22T10:36:46.087Z,49.50
2022-10-22T10:39:35.432Z,49.50
2022-10-22T10:42:24.903Z,49.50
2022-10-22T10:45:15.642Z,49.60
2022-10-22T10:48:11.646Z,49.60
2022-10-22T10:51:00.083Z,49.50
2022-10-22T10:54:04.040Z,49.70
2022-10-22T10:56:43.095Z,49.60
2022-10-22T10:59:24.914Z,49.60
2022-10-22T11:01:58.058Z,49.60
2022-10-22T11:04:49.449Z,49.60
2022-10-22T11:07:40.575Z,49.60
2022-10-22T11:10:21.540Z,49.60
2022-10-22T11:12:52.643Z,49.70
2022-10-22T11:15:38.678Z,49.70
2022-10-22T11:18:37.418Z,49.80
2022-10-22T11:21:24.573Z,49.70
2022-10-22T11:24:17.244Z,49.70
2022-10-22T11:26:50.490Z,49.80
2022-10-22T11:29:25.631Z,49.80
2022-10-22T11:31:57.315Z,49.80
2022-10-22T11:34:51.861Z,49.80
2022-10-22T11:37:22.206Z,49.90
2022-10-22T11:40:06.955Z,49.90
2022-10-22T11:42:40.923Z,49.90
2022-10-22T11:45:17.075Z,50.10
2022-10-22T11:48:09.158Z,50.00
2022-10-22T11:50:52.091Z,50.10
2022-10-22T11:53:32.068Z,50.10
2022-10-22T11:56:11.857Z,50.10
2022-10-22T11:58:52.178Z,50.10
2022-10-22T12:01:27.044Z,50.00
2022-10-22T12:04:00.643Z,50.10
2022-10-22T12:06:30.645Z,50.10
2022-10-22T12:09:07.669Z,50.10
2022-10-22T12:11:38.317Z,50.10
2022-10-22T12:14:29.296Z,50.00
2022-10-22T12:17:05.308Z,50.00
2022-10-22T12:19:44.857Z,50.10
2022-10-22T12:22:28.561Z,50.10
2022-10-22T12:25:02.034Z,50.10
2022-10-22T12:27:40.195Z,50.10
2022-10-22T12:30:21.289Z,50.20
2022-10-22T12:32:55.584Z,50.20
2022-10-22T12:35:45.334Z,50.20
2022-10-22T12:38:22.389Z,50.20
2022-10-22T12:40:53.409Z,50.20
2022-10-22T12:43:31.042Z,50.20
2022-10-22T12:46:01.049Z,50.30
2022-10-22T12:48:37.177Z,50.50
2022-10-22T12:51:09.271Z,50.40
2022-10-22T12:53:49.257Z,50.50
2022-10-22T12:56:33.317Z,50.50
2022-10-22T12:59:18.722Z,50.50
2022-10-22T13:01:49.625Z,50.60
2022-10-22T13:04:23.665Z,50.60
2022-10-22T13:07:04.650Z,50.60
2022-10-22T13:09:47.788Z,50.60
2022-10-22T13:12:29.057Z,50.50
2022-10-22T13:14:59.086Z,50.50
2022-10-22T13:17:42.953Z,50.50
2022-10-22T13:20:20.709Z,50.50
2022-10-22T13:23:01.219Z,50.50
2022-10-22T13:25:32.804Z,50.40
2022-10-22T13:28:03.952Z,50.40
2022-10-22T13:30:35.822Z,50.30
2022-10-22T13:33:30.399Z,50.30
2022-10-22T13:36:00.370Z,50.30
2022-10-22T13:38:30.738Z,50.30
2022-10-22T13:41:00.791Z,50.30
2022-10-22T13:43:30.880Z,50.20
2022-10-22T13:46:01.135Z,50.20
2022-10-22T13:48:31.184Z,50.30
2022-10-22T13:51:01.176Z,50.20
2022-10-22T13:53:31.322Z,50.20
2022-10-22T13:56:01.615Z,50.20
2022-10-22T13:58:31.607Z,50.20
2022-10-22T14:01:01.916Z,50.20
2022-10-22T14:03:35.984Z,50.20
2022-10-22T14:06:06.109Z,50.20
2022-10-22T14:08:36.221Z,50.30
2022-10-22T14:11:06.463Z,50.20
2022-10-22T14:13:36.516Z,50.20
2022-10-22T14:16:06.979Z,50.20
2022-10-22T14:18:37.084Z,50.70
2022-10-22T14:21:08.686Z,50.20
2022-10-22T14:23:38.822Z,50.20
2022-10-22T14:26:09.108Z,50.20
2022-10-22T14:28:46.140Z,50.20
2022-10-22T14:31:21.838Z,50.20
2022-10-22T14:33:51.890Z,50.20
2022-10-22T14:36:21.968Z,50.10
2022-10-22T14:38:52.789Z,50.20
2022-10-22T14:41:24.452Z,50.20
2022-10-22T14:43:57.443Z,50.20
2022-10-22T14:46:27.400Z,50.20
2022-10-22T14:48:57.411Z,50.70
2022-10-22T14:51:28.322Z,50.10
2022-10-22T14:53:58.475Z,50.10
2022-10-22T14:56:28.601Z,50.20
2022-10-22T14:58:58.608Z,50.10
2022-10-22T15:01:28.580Z,50.10
2022-10-22T15:03:58.699Z,50.20
2022-10-22T15:06:28.790Z,50.10
2022-10-22T15:08:58.917Z,50.20
2022-10-22T15:11:29.465Z,50.70
2022-10-22T15:13:59.717Z,50.20
2022-10-22T15:16:29.814Z,50.20
2022-10-22T15:19:01.006Z,50.20
2022-10-22T15:21:32.856Z,50.20
2022-10-22T15:24:04.229Z,50.10
2022-10-22T15:26:35.618Z,50.20
2022-10-22T15:29:06.354Z,50.20
2022-10-22T15:31:59.687Z,50.20
2022-10-22T15:34:34.872Z,50.20
2022-10-22T15:37:07.519Z,50.20
2022-10-22T15:39:44.478Z,50.20
2022-10-22T15:42:16.542Z,50.10
2022-10-22T15:44:50.639Z,50.00
2022-10-22T15:47:20.797Z,50.20
2022-10-22T15:49:52.311Z,50.20
2022-10-22T15:52:25.197Z,50.20
2022-10-22T15:54:55.476Z,50.10
2022-10-22T15:57:25.787Z,50.20
2022-10-22T15:59:56.557Z,50.20
2022-10-22T16:02:26.687Z,50.50
2022-10-22T16:04:56.838Z,50.40
2022-10-22T16:07:27.735Z,50.70
2022-10-22T16:09:59.076Z,50.90
2022-10-22T16:12:29.453Z,51.20
2022-10-22T16:14:59.451Z,51.30
2022-10-22T16:17:29.575Z,51.40
2022-10-22T16:19:59.866Z,51.40
2022-10-22T16:22:30.022Z,51.50
2022-10-22T16:25:00.217Z,51.60
2022-10-22T16:27:30.325Z,51.60
2022-10-22T16:30:00.411Z,51.70
2022-10-22T16:32:30.630Z,51.70
2022-10-22T16:35:00.673Z,51.70
2022-10-22T16:37:32.394Z,51.70
2022-10-22T16:40:04.525Z,51.70
2022-10-22T16:42:38.330Z,51.70
2022-10-22T16:45:08.824Z,51.80
2022-10-22T16:47:40.272Z,51.80
2022-10-22T16:50:11.457Z,51.70
2022-10-22T16:52:41.452Z,51.80
2022-10-22T16:55:11.734Z,51.90
2022-10-22T16:57:42.170Z,51.90
2022-10-22T17:00:13.281Z,51.80
2022-10-22T17:02:43.521Z,51.80
2022-10-22T17:05:13.945Z,52.30
2022-10-22T17:07:44.128Z,51.80
2022-10-22T17:10:14.295Z,51.90
2022-10-22T17:12:44.910Z,51.90
2022-10-22T17:15:15.325Z,51.90
2022-10-22T17:17:49.423Z,52.00
2022-10-22T17:20:19.793Z,52.20
2022-10-22T17:22:50.876Z,52.50
2022-10-22T17:25:25.695Z,52.20
2022-10-22T17:27:55.672Z,52.20
2022-10-22T17:30:27.413Z,52.20
2022-10-22T17:32:57.823Z,52.20
2022-10-22T17:38:02.645Z,52.20
2022-10-22T17:40:32.698Z,52.30
2022-10-22T17:43:02.757Z,52.30
2022-10-22T17:45:32.849Z,52.40
2022-10-22T17:48:03.470Z,52.50
2022-10-22T17:50:33.568Z,52.50
2022-10-22T17:53:03.663Z,52.50
2022-10-22T17:55:35.828Z,52.60
2022-10-22T17:58:06.043Z,52.50
2022-10-22T18:00:37.462Z,52.50
2022-10-22T18:03:07.702Z,52.50
2022-10-22T18:05:40.107Z,52.50
2022-10-22T18:08:10.326Z,52.50
2022-10-22T18:10:43.434Z,52.40
2022-10-22T18:13:13.704Z,52.40
2022-10-22T18:15:43.699Z,52.40
2022-10-22T18:18:15.499Z,52.30
2022-10-22T18:20:51.234Z,52.50
2022-10-22T18:23:21.832Z,52.30
2022-10-22T18:25:52.124Z,52.30
2022-10-22T18:28:22.234Z,52.30
2022-10-22T18:30:52.228Z,52.20
2022-10-22T18:33:25.191Z,52.20
2022-10-22T18:35:55.465Z,52.20
2022-10-22T18:38:25.900Z,52.30
2022-10-22T18:40:56.025Z,52.30
2022-10-22T18:43:26.139Z,52.40
2022-10-22T18:45:56.200Z,52.60
2022-10-22T18:48:26.317Z,52.60
2022-10-22T18:51:04.538Z,52.60
2022-10-22T18:53:34.688Z,52.70
2022-10-22T18:56:07.285Z,52.70
2022-10-22T18:58:41.234Z,52.80
2022-10-22T19:01:12.558Z,52.80
2022-10-22T19:03:42.828Z,52.80
2022-10-22T19:06:14.211Z,52.80
2022-10-22T19:08:46.820Z,52.80
2022-10-22T19:11:19.748Z,52.80
2022-10-22T19:13:49.806Z,52.80
2022-10-22T19:16:25.813Z,52.80
2022-10-22T19:19:05.602Z,52.80
2022-10-22T19:21:35.727Z,52.80
2022-10-22T19:24:06.267Z,52.90
2022-10-22T19:26:36.297Z,52.90
2022-10-22T19:29:06.819Z,53.00
2022-10-22T19:31:36.974Z,53.10
2022-10-22T19:34:07.390Z,53.20
2022-10-22T19:36:37.752Z,53.20
2022-10-22T19:39:08.150Z,53.20
2022-10-22T19:41:38.437Z,53.10
2022-10-22T19:44:08.963Z,53.00
2022-10-22T19:46:40.187Z,53.00
2022-10-22T19:49:10.982Z,52.90
2022-10-22T19:51:41.530Z,52.90
2022-10-22T19:54:16.818Z,52.90
2022-10-22T19:56:47.176Z,52.90
2022-10-22T19:59:17.806Z,52.80
2022-10-22T20:01:47.907Z,52.80
2022-10-22T20:04:18.758Z,52.70
2022-10-22T20:06:48.863Z,52.70
2022-10-22T20:09:19.078Z,52.70
2022-10-22T20:11:49.141Z,52.80
2022-10-22T20:14:19.450Z,52.60
2022-10-22T20:16:52.372Z,52.70
2022-10-22T20:19:22.634Z,52.70
2022-10-22T20:21:53.156Z,52.60
2022-10-22T20:24:23.238Z,52.60
2022-10-22T20:26:53.500Z,52.60
2022-10-22T20:29:23.442Z,52.50
2022-10-22T20:31:53.662Z,52.50
2022-10-22T20:34:23.800Z,52.50
2022-10-22T20:36:54.456Z,52.50
2022-10-22T20:39:24.771Z,52.40
2022-10-22T20:41:54.754Z,52.40
2022-10-22T20:44:25.117Z,52.40
2022-10-22T20:46:55.119Z,52.40
2022-10-22T20:49:25.226Z,52.40
2022-10-22T20:51:55.263Z,52.50
2022-10-22T20:54:25.265Z,52.60
2022-10-22T20:56:55.327Z,52.50
2022-10-22T20:59:25.619Z,52.50
2022-10-22T21:01:55.841Z,52.40
2022-10-22T21:04:25.891Z,52.40
2022-10-22T21:06:56.560Z,52.40
2022-10-22T21:09:26.751Z,52.40
2022-10-22T21:11:56.886Z,52.40
2022-10-22T21:14:26.927Z,52.40
2022-10-22T21:16:57.063Z,52.40
2022-10-22T21:19:27.764Z,52.40
2022-10-22T21:21:57.860Z,52.50
2022-10-22T21:24:28.013Z,52.50
2022-10-22T21:26:58.008Z,52.60
2022-10-22T21:29:28.359Z,52.50
2022-10-22T21:31:58.498Z,52.50
2022-10-22T21:34:28.549Z,52.50
2022-10-22T21:36:58.604Z,52.50
2022-10-22T21:39:28.650Z,52.40
2022-10-22T21:41:58.954Z,52.50
2022-10-22T21:44:29.230Z,52.50
2022-10-22T21:46:59.269Z,52.50
2022-10-22T21:49:29.430Z,52.50
2022-10-22T21:52:01.265Z,52.50
2022-10-22T21:54:32.946Z,52.50
2022-10-22T21:57:02.906Z,52.50
2022-10-22T21:59:33.526Z,52.60
2022-10-22T22:02:05.783Z,52.80
2022-10-22T22:04:36.339Z,52.80
2022-10-22T22:07:06.415Z,52.70
2022-10-22T22:09:36.431Z,52.70
2022-10-22T22:12:06.680Z,52.60
2022-10-22T22:14:36.892Z,52.60
2022-10-22T22:17:07.049Z,52.60
2022-10-22T22:19:37.244Z,52.50
2022-10-22T22:22:07.285Z,52.40
2022-10-22T22:24:37.290Z,52.50
2022-10-22T22:27:07.505Z,52.50
2022-10-22T22:29:37.691Z,52.50
2022-10-22T22:32:07.814Z,52.50
2022-10-22T22:34:38.722Z,52.50
2022-10-22T22:37:09.287Z,52.50
2022-10-22T22:39:39.364Z,52.50
2022-10-22T22:42:09.407Z,52.60
2022-10-22T22:44:40.790Z,52.60
2022-10-22T22:47:10.816Z,52.70
2022-10-22T22:49:40.957Z,52.60
2022-10-22T22:52:11.203Z,52.60
2022-10-22T22:54:41.259Z,52.60
2022-10-22T22:57:11.212Z,52.60
2022-10-22T22:59:41.328Z,52.40
2022-10-22T23:02:11.482Z,52.50
2022-10-22T23:04:41.591Z,52.50
2022-10-22T23:07:11.630Z,52.40
2022-10-22T23:09:41.793Z,52.30
2022-10-22T23:12:12.080Z,52.30
2022-10-22T23:14:42.166Z,52.40
2022-10-22T23:17:12.456Z,52.30
2022-10-22T23:19:42.453Z,52.30
2022-10-22T23:22:12.596Z,52.80
2022-10-22T23:24:42.602Z,52.30
2022-10-22T23:27:12.566Z,52.40
2022-10-22T23:29:42.659Z,52.40
2022-10-22T23:32:17.535Z,52.40
2022-10-22T23:34:47.609Z,52.40
2022-10-22T23:37:17.691Z,52.40
2022-10-22T23:39:47.734Z,52.90
2022-10-22T23:42:17.828Z,52.30
2022-10-22T23:44:47.932Z,52.20
2022-10-22T23:47:18.023Z,52.30
2022-10-22T23:49:48.342Z,52.80
2022-10-22T23:52:18.339Z,52.30
2022-10-22T23:54:49.721Z,52.20
2022-10-22T23:57:19.765Z,52.20
2022-10-22T23:59:49.772Z,52.20
